Observations for BRIZE NORTON RA, United Kingdom (EGVN)

EGVN 201650Z AUTO 25008G18KT 9999 SCT033/// 21/14 Q1019 
EGVN 201550Z AUTO 25008KT 9999 FEW013/// SCT040/// 21/15 Q1019 RERA 
EGVN 201450Z AUTO 25008KT 8000 BKN015/// SCT023/// 20/15 Q1019  
EGVN 201350Z 26009G19KT 9999 BKN017 20/15 Q1019 NOSIG   
EGVN 201250Z 26009KT 9999 BKN018 20/15 Q1019 NOSIG  
EGVN 201250Z 26009KT 9999 BKN018 20/15 Q1019 WHT NOSIG
EGVN 201150Z 25009KT 9999 BKN020 21/15 Q1019 NOSIG  
EGVN 201150Z 25009KT 9999 BKN020 21/15 Q1019 WHT NOSIG
EGVN 201050Z 25011G21KT 9999 BKN020 21/15 Q1019 WHT NOSIG   
EGVN 201050Z AUTO 25007KT 9999 BKN017/// 20/15 Q1019
EGVN 200950Z 25007KT 9999 BKN018 20/15 Q1019 WHT NOSIG  
EGVN 200850Z 23007KT 9999 BKN016 19/15 Q1020 NOSIG  
EGVN 200850Z 23007KT 9999 BKN016 19/15 Q1020 WHT NOSIG
EGVN 200826Z 22006KT 9999 FEW012 BKN016 19/15 Q1020 WHT TEMPO SCT012 GRN
EGVN 200750Z 22007KT 9999 BKN011 BKN018 17/15 Q1020 GRN TEMPO BKN015 WHT
EGVN 200750Z 22007KT 9999 BKN011 BKN018 17/15 Q1020 TEMPO BKN015
EGVN 200650Z 22006KT 9999 BKN010 BKN015 17/15 Q1020 TEMPO BKN015
EGVN 200650Z 22006KT 9999 BKN010 BKN015 17/15 Q1020 GRN TEMPO BKN015 WHT
EGVN 200550Z 22006KT 9999 SCT010 BKN018 17/15 Q1020 TEMPO FEW010 BKN018 
EGVN 200550Z 22006KT 9999 SCT010 BKN018 17/15 Q1020 GRN TEMPO FEW010 BKN018 WHT
EGVN 200450Z 23004KT 9999 BKN008 BKN015 17/15 Q1020 TEMPO FEW008 BKN015 
EGVN 200450Z 23004KT 9999 BKN008 BKN015 17/15 Q1020 GRN TEMPO FEW008 BKN015 WHT
EGVN 200428Z 23004KT 9999 BKN009 BKN018 17/15 Q1020 GRN TEMPO FEW009 BKN018 WHT
EGVN 200350Z 22004KT 9999 OVC019 17/15 Q1020 NOSIG  
EGVN 200350Z 22004KT 9999 OVC019 17/15 Q1020 WHT NOSIG
EGVN 200250Z 22004KT 9999 BKN020 17/15 Q1020 TEMPO SCT014   
EGVN 200250Z 22004KT 9999 BKN020 17/15 Q1020 WHT TEMPO SCT014 GRN
EGVN 200150Z 25004KT 9999 FEW014 BKN020 17/15 Q1020 WHT TEMPO SCT014 GRN
EGVN 200150Z 25004KT 9999 FEW014 BKN020 17/15 Q1020 TEMPO SCT014
EGVN 200050Z 23005KT 9999 BKN012 17/15 Q1021 TEMPO FEW012 BKN020
EGVN 200050Z 23005KT 9999 BKN012 17/15 Q1021 GRN TEMPO FEW012 BKN020 WHT
EGVN 192350Z 26006KT 9999 SCT013 BKN025 17/15 Q1021 TEMPO FEW013
EGVN 192350Z 26006KT 9999 SCT013 BKN025 17/15 Q1021 GRN TEMPO FEW013 BLU
EGVN 192250Z 23005KT 9999 SCT012 SCT029 18/15 Q1022 TEMPO FEW012
EGVN 192250Z 23005KT 9999 SCT012 SCT029 18/15 Q1022 GRN TEMPO FEW012 BLU
EGVN 192230Z 24004KT 9999 BKN012 18/15 Q1022 GRN TEMPO FEW012 BLU
EGVN 192150Z 27004KT 9999 BKN015 18/15 Q1022 BECMG BKN012   
EGVN 192150Z 27004KT 9999 BKN015 18/15 Q1022 WHT BECMG BKN012 GRN
EGVN 192050Z 26006KT 9999 BKN030 19/15 Q1022 NOSIG  
EGVN 192050Z 26006KT 9999 BKN030 19/15 Q1022 BLU NOSIG
EGVN 191950Z 26008KT 9999 FEW023 BKN040 20/15 Q1022 NOSIG   
EGVN 191950Z 26008KT 9999 FEW023 BKN040 20/15 Q1022 BLU NOSIG
EGVN 191850Z 25004KT 9999 FEW025 BKN040 21/15 Q1022 BLU NOSIG   
EGVN 191850Z 25004KT 9999 FEW025 BKN040 21/15 Q1022 NOSIG
EGVN 191750Z 26006KT 9999 FEW024 BKN040 22/15 Q1022 BLU NOSIG   
EGVN 191750Z 26006KT 9999 FEW024 BKN040 22/15 Q1022 NOSIG
EGVN 191650Z 26010KT 9999 FEW024 BKN030 23/15 Q1022 NOSIG   
EGVN 191650Z 26010KT 9999 FEW024 BKN030 23/15 Q1022 BLU NOSIG